Blue Lake, California
Current Conditions -  °F | °C
As of 9:36 AM on Saturday 25 Oct 2014 (Local Time) from KACV Reporting Station
Light Rain Light Rain  
Wind Chill: 59°   Ceiling: 3000
Heat Index: 59°   Visibility: 10mi
Dew Point: 56°   Wind: 16mph
Humidity: 90%   Direction: 160°SSE
Pressure: 29.68"   Gusts: 23mph
Location:  40.88°N, 123.98°W
Report Text: KACV 251636Z AUTO 16014G20KT 10SM -RA FEW025 BKN030 OVC040 15/13 A2968 RMK AO2 P0009 T01500133
Loading
Personal Weather Stations






























Interactive Weather Map
Tropical Storm Tracking
New forecast layout! Learn more

10-Day Weather Forecast

Advertisements
Track Severe Weather on mobile